Main page
METAR-TAF:

METAR-TAF

Airports :

Aeroporto di Sarzana-Luni

Sarzana, Italy

latitude: 44-05N, longitude: 009-59E, elevation: 9 m

Current weather observation

The report was made 1 hour and 21 minutes ago, at 11:55 UTC
Wind 6 kt from the East/Northeast
Temperature 27°C
Humidity 54%
Pressure 1015 hPa
Visibility 10 km or more
Few clouds at a height of 3000 ft

METAR: LIQW 061155Z 07006KT 9999 FEW030 27/17 Q1015 RMK FEW VIS MIN 9999 WIND THR18 14006KT BLU

Time: 15:16 (13:16 UTC)

Forecast

The report was made 2 hours and 16 minutes ago, at 11:00 UTC
Forecast valid from 06 at 12 UTC to 06 at 21 UTC
Wind 5 kt from the East/Southeast
Visibility 10 km or more
no clouds below 1500 m and no cumulonimbus

TAF: LIQW 061100Z 0612/0621 12005KT CAVOK

Weather observations and forecasts of more than 4000 airports (METAR and TAF reports).

The available stations are represented by yellow and red dots on the map.

Hover mouse over dot to see the name of the station.

Then click to see weather observations and forecasts.

To change the map : click on the green buttons with a black cross to zoom in, on the green button with a dash to zoom out, or on the green arrows for adjacent maps.


METAR-TAF: